sensor_id;sensor_type;location;lat;lon;timestamp;temperature;humidity
74617;DHT22;63123;50.906;4.198;2022-12-11T00:00:49;17.90;44.40
74617;DHT22;63123;50.906;4.198;2022-12-11T00:03:17;17.90;44.50
74617;DHT22;63123;50.906;4.198;2022-12-11T00:05:44;17.90;44.20
74617;DHT22;63123;50.906;4.198;2022-12-11T00:08:10;17.90;44.40
74617;DHT22;63123;50.906;4.198;2022-12-11T00:10:36;17.90;44.20
74617;DHT22;63123;50.906;4.198;2022-12-11T00:13:02;17.90;44.40
74617;DHT22;63123;50.906;4.198;2022-12-11T00:15:27;17.80;44.30
74617;DHT22;63123;50.906;4.198;2022-12-11T00:17:53;17.90;44.30
74617;DHT22;63123;50.906;4.198;2022-12-11T00:20:19;17.80;44.40
74617;DHT22;63123;50.906;4.198;2022-12-11T00:22:44;17.90;44.50
74617;DHT22;63123;50.906;4.198;2022-12-11T00:25:10;17.90;44.30
74617;DHT22;63123;50.906;4.198;2022-12-11T00:27:35;17.90;44.20
74617;DHT22;63123;50.906;4.198;2022-12-11T00:30:01;17.90;44.40
74617;DHT22;63123;50.906;4.198;2022-12-11T00:32:27;17.90;44.30
74617;DHT22;63123;50.906;4.198;2022-12-11T00:34:52;17.80;44.50
74617;DHT22;63123;50.906;4.198;2022-12-11T00:37:18;17.90;44.40
74617;DHT22;63123;50.906;4.198;2022-12-11T00:39:44;17.90;44.40
74617;DHT22;63123;50.906;4.198;2022-12-11T00:42:09;17.80;44.20
74617;DHT22;63123;50.906;4.198;2022-12-11T00:44:35;17.80;44.30
74617;DHT22;63123;50.906;4.198;2022-12-11T00:47:01;17.90;44.40
74617;DHT22;63123;50.906;4.198;2022-12-11T00:49:27;17.90;44.50
74617;DHT22;63123;50.906;4.198;2022-12-11T00:51:52;17.90;44.40
74617;DHT22;63123;50.906;4.198;2022-12-11T00:54:18;17.90;44.60
74617;DHT22;63123;50.906;4.198;2022-12-11T00:56:43;17.90;44.30
74617;DHT22;63123;50.906;4.198;2022-12-11T00:59:09;17.90;44.50
74617;DHT22;63123;50.906;4.198;2022-12-11T01:01:35;17.90;44.60
74617;DHT22;63123;50.906;4.198;2022-12-11T01:04:00;17.90;44.50
74617;DHT22;63123;50.906;4.198;2022-12-11T01:06:27;17.90;44.60
74617;DHT22;63123;50.906;4.198;2022-12-11T01:08:53;17.90;44.30
74617;DHT22;63123;50.906;4.198;2022-12-11T01:11:37;17.90;44.50
74617;DHT22;63123;50.906;4.198;2022-12-11T01:14:03;17.90;44.70
74617;DHT22;63123;50.906;4.198;2022-12-11T01:16:29;17.90;44.60
74617;DHT22;63123;50.906;4.198;2022-12-11T01:18:56;17.90;44.40
74617;DHT22;63123;50.906;4.198;2022-12-11T01:21:22;17.80;44.40
74617;DHT22;63123;50.906;4.198;2022-12-11T01:23:49;17.90;44.40
74617;DHT22;63123;50.906;4.198;2022-12-11T01:26:15;17.90;44.50
74617;DHT22;63123;50.906;4.198;2022-12-11T01:28:41;17.90;44.60
74617;DHT22;63123;50.906;4.198;2022-12-11T01:31:08;17.80;44.30
74617;DHT22;63123;50.906;4.198;2022-12-11T01:33:34;17.90;44.60
74617;DHT22;63123;50.906;4.198;2022-12-11T01:36:00;17.90;44.50
74617;DHT22;63123;50.906;4.198;2022-12-11T01:38:25;17.80;44.30
74617;DHT22;63123;50.906;4.198;2022-12-11T01:40:51;17.90;44.50
74617;DHT22;63123;50.906;4.198;2022-12-11T01:43:17;17.90;44.90
74617;DHT22;63123;50.906;4.198;2022-12-11T01:45:45;17.90;44.30
74617;DHT22;63123;50.906;4.198;2022-12-11T01:48:15;17.90;44.50
74617;DHT22;63123;50.906;4.198;2022-12-11T01:50:54;17.90;44.50
74617;DHT22;63123;50.906;4.198;2022-12-11T01:53:27;17.90;44.50
74617;DHT22;63123;50.906;4.198;2022-12-11T01:55:55;17.90;44.70
74617;DHT22;63123;50.906;4.198;2022-12-11T01:58:25;17.80;44.60
74617;DHT22;63123;50.906;4.198;2022-12-11T02:00:52;17.80;44.50
74617;DHT22;63123;50.906;4.198;2022-12-11T02:03:18;17.90;44.60
74617;DHT22;63123;50.906;4.198;2022-12-11T02:05:44;17.90;44.40
74617;DHT22;63123;50.906;4.198;2022-12-11T02:08:09;17.90;44.60
74617;DHT22;63123;50.906;4.198;2022-12-11T02:13:28;17.80;44.60
74617;DHT22;63123;50.906;4.198;2022-12-11T02:16:36;17.90;44.50
74617;DHT22;63123;50.906;4.198;2022-12-11T02:19:19;17.90;44.60
74617;DHT22;63123;50.906;4.198;2022-12-11T02:21:50;17.90;44.70
74617;DHT22;63123;50.906;4.198;2022-12-11T02:30:07;17.90;44.60
74617;DHT22;63123;50.906;4.198;2022-12-11T02:32:46;17.90;44.50
74617;DHT22;63123;50.906;4.198;2022-12-11T02:35:17;17.90;44.50
74617;DHT22;63123;50.906;4.198;2022-12-11T02:37:46;17.90;44.40
74617;DHT22;63123;50.906;4.198;2022-12-11T02:40:16;17.90;44.70
74617;DHT22;63123;50.906;4.198;2022-12-11T02:42:46;17.90;44.50
74617;DHT22;63123;50.906;4.198;2022-12-11T02:45:13;17.90;44.70
74617;DHT22;63123;50.906;4.198;2022-12-11T02:47:40;17.90;44.70
74617;DHT22;63123;50.906;4.198;2022-12-11T02:50:10;17.90;44.60
74617;DHT22;63123;50.906;4.198;2022-12-11T02:52:38;17.90;44.70
74617;DHT22;63123;50.906;4.198;2022-12-11T02:55:06;17.90;44.70
74617;DHT22;63123;50.906;4.198;2022-12-11T02:57:37;17.90;44.50
74617;DHT22;63123;50.906;4.198;2022-12-11T03:00:05;17.90;44.70
74617;DHT22;63123;50.906;4.198;2022-12-11T03:02:31;17.90;44.70
74617;DHT22;63123;50.906;4.198;2022-12-11T03:04:57;17.90;44.50
74617;DHT22;63123;50.906;4.198;2022-12-11T03:07:26;17.90;44.70
74617;DHT22;63123;50.906;4.198;2022-12-11T03:09:53;17.90;44.60
74617;DHT22;63123;50.906;4.198;2022-12-11T03:12:28;17.90;44.60
74617;DHT22;63123;50.906;4.198;2022-12-11T03:14:57;17.90;44.70
74617;DHT22;63123;50.906;4.198;2022-12-11T03:17:37;17.90;44.50
74617;DHT22;63123;50.906;4.198;2022-12-11T03:22:39;17.90;44.60
74617;DHT22;63123;50.906;4.198;2022-12-11T03:25:23;17.90;44.60
74617;DHT22;63123;50.906;4.198;2022-12-11T03:28:18;17.90;44.70
74617;DHT22;63123;50.906;4.198;2022-12-11T03:30:46;17.90;44.70
74617;DHT22;63123;50.906;4.198;2022-12-11T03:33:27;17.90;44.60
74617;DHT22;63123;50.906;4.198;2022-12-11T03:36:00;17.80;44.30
74617;DHT22;63123;50.906;4.198;2022-12-11T03:38:33;17.90;44.60
74617;DHT22;63123;50.906;4.198;2022-12-11T03:41:01;17.90;44.60
74617;DHT22;63123;50.906;4.198;2022-12-11T03:43:29;17.90;44.50
74617;DHT22;63123;50.906;4.198;2022-12-11T03:45:58;17.90;44.60
74617;DHT22;63123;50.906;4.198;2022-12-11T03:48:29;17.90;44.70
74617;DHT22;63123;50.906;4.198;2022-12-11T03:50:57;17.90;44.50
74617;DHT22;63123;50.906;4.198;2022-12-11T03:53:25;17.90;44.40
74617;DHT22;63123;50.906;4.198;2022-12-11T03:55:51;17.90;44.50
74617;DHT22;63123;50.906;4.198;2022-12-11T03:58:18;17.90;44.40
74617;DHT22;63123;50.906;4.198;2022-12-11T04:00:43;17.90;44.70
74617;DHT22;63123;50.906;4.198;2022-12-11T04:03:09;17.90;44.50
74617;DHT22;63123;50.906;4.198;2022-12-11T04:05:38;17.90;44.50
74617;DHT22;63123;50.906;4.198;2022-12-11T04:08:03;17.90;44.60
74617;DHT22;63123;50.906;4.198;2022-12-11T04:10:29;17.90;44.50
74617;DHT22;63123;50.906;4.198;2022-12-11T04:12:54;17.80;45.20
74617;DHT22;63123;50.906;4.198;2022-12-11T04:15:20;17.90;44.60
74617;DHT22;63123;50.906;4.198;2022-12-11T04:17:46;17.90;44.60
74617;DHT22;63123;50.906;4.198;2022-12-11T04:20:30;17.90;44.70
74617;DHT22;63123;50.906;4.198;2022-12-11T04:23:17;17.90;44.60
74617;DHT22;63123;50.906;4.198;2022-12-11T04:26:18;17.90;44.70
74617;DHT22;63123;50.906;4.198;2022-12-11T04:28:45;17.90;44.80
74617;DHT22;63123;50.906;4.198;2022-12-11T04:31:12;17.80;44.50
74617;DHT22;63123;50.906;4.198;2022-12-11T04:33:38;17.90;44.80
74617;DHT22;63123;50.906;4.198;2022-12-11T04:36:05;17.90;44.80
74617;DHT22;63123;50.906;4.198;2022-12-11T04:38:30;17.90;44.90
74617;DHT22;63123;50.906;4.198;2022-12-11T04:40:58;17.90;44.80
74617;DHT22;63123;50.906;4.198;2022-12-11T04:43:23;17.80;44.40
74617;DHT22;63123;50.906;4.198;2022-12-11T04:45:49;17.80;44.40
74617;DHT22;63123;50.906;4.198;2022-12-11T04:48:14;17.90;44.60
74617;DHT22;63123;50.906;4.198;2022-12-11T04:50:40;17.90;44.60
74617;DHT22;63123;50.906;4.198;2022-12-11T04:53:05;17.90;44.70
74617;DHT22;63123;50.906;4.198;2022-12-11T04:55:31;17.90;44.60
74617;DHT22;63123;50.906;4.198;2022-12-11T04:57:56;17.90;44.80
74617;DHT22;63123;50.906;4.198;2022-12-11T05:00:22;17.90;44.40
74617;DHT22;63123;50.906;4.198;2022-12-11T05:02:48;17.80;44.60
74617;DHT22;63123;50.906;4.198;2022-12-11T05:05:13;17.90;44.60
74617;DHT22;63123;50.906;4.198;2022-12-11T05:07:39;17.90;44.50
74617;DHT22;63123;50.906;4.198;2022-12-11T05:10:05;17.90;44.80
74617;DHT22;63123;50.906;4.198;2022-12-11T05:12:31;17.90;44.90
74617;DHT22;63123;50.906;4.198;2022-12-11T05:14:57;17.90;44.90
74617;DHT22;63123;50.906;4.198;2022-12-11T05:17:23;17.90;45.00
74617;DHT22;63123;50.906;4.198;2022-12-11T05:19:50;17.90;44.80
74617;DHT22;63123;50.906;4.198;2022-12-11T05:22:17;17.90;45.00
74617;DHT22;63123;50.906;4.198;2022-12-11T05:24:43;17.90;45.00
74617;DHT22;63123;50.906;4.198;2022-12-11T05:27:09;17.90;45.00
74617;DHT22;63123;50.906;4.198;2022-12-11T05:29:35;17.90;44.90
74617;DHT22;63123;50.906;4.198;2022-12-11T05:32:01;17.80;44.90
74617;DHT22;63123;50.906;4.198;2022-12-11T05:34:26;17.90;45.00
74617;DHT22;63123;50.906;4.198;2022-12-11T05:36:52;17.90;44.90
74617;DHT22;63123;50.906;4.198;2022-12-11T05:39:17;17.80;44.80
74617;DHT22;63123;50.906;4.198;2022-12-11T05:41:43;17.90;45.00
74617;DHT22;63123;50.906;4.198;2022-12-11T05:44:12;17.90;44.80
74617;DHT22;63123;50.906;4.198;2022-12-11T05:46:38;17.90;44.90
74617;DHT22;63123;50.906;4.198;2022-12-11T05:49:04;17.90;45.00
74617;DHT22;63123;50.906;4.198;2022-12-11T05:51:31;17.90;45.00
74617;DHT22;63123;50.906;4.198;2022-12-11T05:54:01;17.90;45.00
74617;DHT22;63123;50.906;4.198;2022-12-11T05:56:31;17.90;45.00
74617;DHT22;63123;50.906;4.198;2022-12-11T05:58:58;17.90;44.90
74617;DHT22;63123;50.906;4.198;2022-12-11T06:01:27;17.90;45.00
74617;DHT22;63123;50.906;4.198;2022-12-11T06:03:53;17.90;45.00
74617;DHT22;63123;50.906;4.198;2022-12-11T06:06:19;17.90;45.00
74617;DHT22;63123;50.906;4.198;2022-12-11T06:08:48;17.90;45.00
74617;DHT22;63123;50.906;4.198;2022-12-11T06:11:13;17.80;45.00
74617;DHT22;63123;50.906;4.198;2022-12-11T06:13:39;17.90;45.00
74617;DHT22;63123;50.906;4.198;2022-12-11T06:16:06;17.90;45.00
74617;DHT22;63123;50.906;4.198;2022-12-11T06:18:35;17.80;44.90
74617;DHT22;63123;50.906;4.198;2022-12-11T06:21:01;17.90;45.00
74617;DHT22;63123;50.906;4.198;2022-12-11T06:23:26;17.90;44.90
74617;DHT22;63123;50.906;4.198;2022-12-11T06:25:52;17.90;44.90
74617;DHT22;63123;50.906;4.198;2022-12-11T06:28:18;17.90;45.00
74617;DHT22;63123;50.906;4.198;2022-12-11T06:30:43;17.90;45.00
74617;DHT22;63123;50.906;4.198;2022-12-11T06:33:09;17.90;44.90
74617;DHT22;63123;50.906;4.198;2022-12-11T06:35:35;17.80;44.80
74617;DHT22;63123;50.906;4.198;2022-12-11T06:38:00;17.90;45.60
74617;DHT22;63123;50.906;4.198;2022-12-11T06:40:26;17.90;44.90
74617;DHT22;63123;50.906;4.198;2022-12-11T06:42:53;17.90;45.00
74617;DHT22;63123;50.906;4.198;2022-12-11T06:45:19;17.90;45.00
74617;DHT22;63123;50.906;4.198;2022-12-11T06:47:44;17.90;45.00
74617;DHT22;63123;50.906;4.198;2022-12-11T06:50:10;17.90;45.00
74617;DHT22;63123;50.906;4.198;2022-12-11T06:52:35;17.90;45.00
74617;DHT22;63123;50.906;4.198;2022-12-11T06:55:01;17.80;44.90
74617;DHT22;63123;50.906;4.198;2022-12-11T06:57:27;17.90;45.00
74617;DHT22;63123;50.906;4.198;2022-12-11T06:59:52;17.90;44.90
74617;DHT22;63123;50.906;4.198;2022-12-11T07:02:19;17.90;45.00
74617;DHT22;63123;50.906;4.198;2022-12-11T07:04:45;17.90;45.00
74617;DHT22;63123;50.906;4.198;2022-12-11T07:07:10;17.90;44.90
74617;DHT22;63123;50.906;4.198;2022-12-11T07:09:38;17.90;44.80
74617;DHT22;63123;50.906;4.198;2022-12-11T07:12:05;17.90;44.90
74617;DHT22;63123;50.906;4.198;2022-12-11T07:14:31;17.90;44.90
74617;DHT22;63123;50.906;4.198;2022-12-11T07:16:57;17.90;44.80
74617;DHT22;63123;50.906;4.198;2022-12-11T07:19:23;17.90;44.90
74617;DHT22;63123;50.906;4.198;2022-12-11T07:21:49;17.80;44.90
74617;DHT22;63123;50.906;4.198;2022-12-11T07:24:15;17.90;45.00
74617;DHT22;63123;50.906;4.198;2022-12-11T07:26:40;17.80;44.90
74617;DHT22;63123;50.906;4.198;2022-12-11T07:29:06;17.90;44.80
74617;DHT22;63123;50.906;4.198;2022-12-11T07:31:32;17.80;45.00
74617;DHT22;63123;50.906;4.198;2022-12-11T07:34:03;17.90;44.80
74617;DHT22;63123;50.906;4.198;2022-12-11T07:36:30;17.90;44.90
74617;DHT22;63123;50.906;4.198;2022-12-11T07:38:56;17.90;44.90
74617;DHT22;63123;50.906;4.198;2022-12-11T07:41:23;17.90;44.90
74617;DHT22;63123;50.906;4.198;2022-12-11T07:43:49;17.90;44.90
74617;DHT22;63123;50.906;4.198;2022-12-11T07:46:17;17.90;45.00
74617;DHT22;63123;50.906;4.198;2022-12-11T07:48:44;17.90;44.70
74617;DHT22;63123;50.906;4.198;2022-12-11T07:53:49;17.90;44.90
74617;DHT22;63123;50.906;4.198;2022-12-11T07:56:16;17.90;44.90
74617;DHT22;63123;50.906;4.198;2022-12-11T07:58:43;17.90;44.70
74617;DHT22;63123;50.906;4.198;2022-12-11T08:01:17;17.90;44.90
74617;DHT22;63123;50.906;4.198;2022-12-11T08:03:42;17.90;44.90
74617;DHT22;63123;50.906;4.198;2022-12-11T08:06:09;17.90;44.90
74617;DHT22;63123;50.906;4.198;2022-12-11T08:08:35;17.90;44.90
74617;DHT22;63123;50.906;4.198;2022-12-11T08:11:05;17.80;44.80
74617;DHT22;63123;50.906;4.198;2022-12-11T08:13:31;17.80;44.90
74617;DHT22;63123;50.906;4.198;2022-12-11T08:15:57;17.80;44.80
74617;DHT22;63123;50.906;4.198;2022-12-11T08:18:23;17.90;44.90
74617;DHT22;63123;50.906;4.198;2022-12-11T08:20:48;17.90;45.00
74617;DHT22;63123;50.906;4.198;2022-12-11T08:23:14;17.90;45.00
74617;DHT22;63123;50.906;4.198;2022-12-11T08:25:40;17.90;44.90
74617;DHT22;63123;50.906;4.198;2022-12-11T08:28:05;17.90;44.20
74617;DHT22;63123;50.906;4.198;2022-12-11T08:30:31;17.90;43.70
74617;DHT22;63123;50.906;4.198;2022-12-11T08:32:57;17.90;43.50
74617;DHT22;63123;50.906;4.198;2022-12-11T08:35:24;17.90;43.70
74617;DHT22;63123;50.906;4.198;2022-12-11T08:37:49;17.90;43.60
74617;DHT22;63123;50.906;4.198;2022-12-11T08:40:15;17.90;43.80
74617;DHT22;63123;50.906;4.198;2022-12-11T08:42:41;17.90;43.10
74617;DHT22;63123;50.906;4.198;2022-12-11T08:45:07;17.90;43.90
74617;DHT22;63123;50.906;4.198;2022-12-11T08:47:32;17.90;44.30
74617;DHT22;63123;50.906;4.198;2022-12-11T08:49:58;17.90;43.70
74617;DHT22;63123;50.906;4.198;2022-12-11T08:52:24;17.90;43.90
74617;DHT22;63123;50.906;4.198;2022-12-11T08:54:49;17.90;43.60
74617;DHT22;63123;50.906;4.198;2022-12-11T08:57:15;17.90;44.20
74617;DHT22;63123;50.906;4.198;2022-12-11T08:59:40;17.90;43.90
74617;DHT22;63123;50.906;4.198;2022-12-11T09:02:08;17.90;44.10
74617;DHT22;63123;50.906;4.198;2022-12-11T09:04:35;17.90;43.80
74617;DHT22;63123;50.906;4.198;2022-12-11T09:07:00;17.90;44.30
74617;DHT22;63123;50.906;4.198;2022-12-11T09:09:26;17.80;44.00
74617;DHT22;63123;50.906;4.198;2022-12-11T09:11:51;17.80;44.20
74617;DHT22;63123;50.906;4.198;2022-12-11T09:14:17;17.90;43.60
74617;DHT22;63123;50.906;4.198;2022-12-11T09:16:42;17.90;43.60
74617;DHT22;63123;50.906;4.198;2022-12-11T09:19:11;17.90;42.70
74617;DHT22;63123;50.906;4.198;2022-12-11T09:21:41;17.90;43.30
74617;DHT22;63123;50.906;4.198;2022-12-11T09:24:09;17.90;43.30
74617;DHT22;63123;50.906;4.198;2022-12-11T09:26:35;17.90;44.00
74617;DHT22;63123;50.906;4.198;2022-12-11T09:29:02;17.90;43.60
74617;DHT22;63123;50.906;4.198;2022-12-11T09:31:30;17.90;43.70
74617;DHT22;63123;50.906;4.198;2022-12-11T09:33:58;17.90;43.30
74617;DHT22;63123;50.906;4.198;2022-12-11T09:36:24;17.90;44.20
74617;DHT22;63123;50.906;4.198;2022-12-11T09:38:50;17.90;43.20
74617;DHT22;63123;50.906;4.198;2022-12-11T09:43:51;17.90;43.60
74617;DHT22;63123;50.906;4.198;2022-12-11T09:46:22;17.90;43.50
74617;DHT22;63123;50.906;4.198;2022-12-11T09:48:49;17.90;43.70
74617;DHT22;63123;50.906;4.198;2022-12-11T09:51:29;17.90;43.70
74617;DHT22;63123;50.906;4.198;2022-12-11T09:53:59;17.90;43.10
74617;DHT22;63123;50.906;4.198;2022-12-11T09:56:35;17.90;43.10
74617;DHT22;63123;50.906;4.198;2022-12-11T10:05:05;17.90;43.60
74617;DHT22;63123;50.906;4.198;2022-12-11T10:18:29;17.80;43.20
74617;DHT22;63123;50.906;4.198;2022-12-11T10:20:56;17.90;43.50
74617;DHT22;63123;50.906;4.198;2022-12-11T10:23:28;17.90;43.30
74617;DHT22;63123;50.906;4.198;2022-12-11T10:26:14;17.90;43.60
74617;DHT22;63123;50.906;4.198;2022-12-11T10:28:40;17.90;42.50
74617;DHT22;63123;50.906;4.198;2022-12-11T10:33:58;17.90;42.60
74617;DHT22;63123;50.906;4.198;2022-12-11T10:36:30;17.90;42.50
74617;DHT22;63123;50.906;4.198;2022-12-11T10:38:56;17.90;42.00
74617;DHT22;63123;50.906;4.198;2022-12-11T10:41:29;17.90;41.90
74617;DHT22;63123;50.906;4.198;2022-12-11T10:43:57;17.90;43.00
74617;DHT22;63123;50.906;4.198;2022-12-11T10:46:25;17.90;42.70
74617;DHT22;63123;50.906;4.198;2022-12-11T10:49:00;17.90;43.10
74617;DHT22;63123;50.906;4.198;2022-12-11T10:53:57;17.90;42.20
74617;DHT22;63123;50.906;4.198;2022-12-11T10:56:29;18.00;42.70
74617;DHT22;63123;50.906;4.198;2022-12-11T10:58:56;17.90;42.70
74617;DHT22;63123;50.906;4.198;2022-12-11T11:01:24;17.90;42.20
74617;DHT22;63123;50.906;4.198;2022-12-11T11:03:56;17.90;42.70
74617;DHT22;63123;50.906;4.198;2022-12-11T11:06:23;17.90;43.00
74617;DHT22;63123;50.906;4.198;2022-12-11T11:08:51;17.90;42.00
74617;DHT22;63123;50.906;4.198;2022-12-11T11:13:45;17.90;42.80
74617;DHT22;63123;50.906;4.198;2022-12-11T11:16:12;17.90;43.10
74617;DHT22;63123;50.906;4.198;2022-12-11T11:18:40;17.90;43.20
74617;DHT22;63123;50.906;4.198;2022-12-11T11:21:14;17.90;42.80
74617;DHT22;63123;50.906;4.198;2022-12-11T11:23:40;17.90;42.30
74617;DHT22;63123;50.906;4.198;2022-12-11T11:26:06;17.90;42.20
74617;DHT22;63123;50.906;4.198;2022-12-11T11:28:35;17.90;42.70
74617;DHT22;63123;50.906;4.198;2022-12-11T11:31:05;17.90;43.30
74617;DHT22;63123;50.906;4.198;2022-12-11T11:33:33;18.00;43.10
74617;DHT22;63123;50.906;4.198;2022-12-11T11:36:00;17.90;42.10
74617;DHT22;63123;50.906;4.198;2022-12-11T11:41:49;17.90;43.10
74617;DHT22;63123;50.906;4.198;2022-12-11T11:44:15;17.90;42.70
74617;DHT22;63123;50.906;4.198;2022-12-11T11:47:08;17.90;43.00
74617;DHT22;63123;50.906;4.198;2022-12-11T11:52:47;17.90;42.50
74617;DHT22;63123;50.906;4.198;2022-12-11T11:55:18;17.90;43.10
74617;DHT22;63123;50.906;4.198;2022-12-11T11:58:06;17.90;42.90
74617;DHT22;63123;50.906;4.198;2022-12-11T12:00:35;17.90;43.30
74617;DHT22;63123;50.906;4.198;2022-12-11T12:03:15;17.90;42.80
74617;DHT22;63123;50.906;4.198;2022-12-11T12:05:54;17.90;41.70
74617;DHT22;63123;50.906;4.198;2022-12-11T12:08:45;17.90;42.30
74617;DHT22;63123;50.906;4.198;2022-12-11T12:17:05;17.90;42.70
74617;DHT22;63123;50.906;4.198;2022-12-11T12:25:33;17.90;43.30
74617;DHT22;63123;50.906;4.198;2022-12-11T12:28:38;17.90;43.20
74617;DHT22;63123;50.906;4.198;2022-12-11T12:42:18;17.90;42.70
74617;DHT22;63123;50.906;4.198;2022-12-11T12:47:40;17.90;43.00
74617;DHT22;63123;50.906;4.198;2022-12-11T12:50:12;17.80;43.20
74617;DHT22;63123;50.906;4.198;2022-12-11T12:52:39;17.90;42.00
74617;DHT22;63123;50.906;4.198;2022-12-11T12:57:53;17.90;43.20
74617;DHT22;63123;50.906;4.198;2022-12-11T13:02:52;17.90;43.00
74617;DHT22;63123;50.906;4.198;2022-12-11T13:05:26;17.90;42.90
74617;DHT22;63123;50.906;4.198;2022-12-11T13:07:56;17.90;42.60
74617;DHT22;63123;50.906;4.198;2022-12-11T13:10:37;17.90;42.80
74617;DHT22;63123;50.906;4.198;2022-12-11T13:13:05;17.90;42.50
74617;DHT22;63123;50.906;4.198;2022-12-11T13:15:49;17.90;42.50
74617;DHT22;63123;50.906;4.198;2022-12-11T13:18:34;17.90;43.50
74617;DHT22;63123;50.906;4.198;2022-12-11T13:21:02;17.90;42.90
74617;DHT22;63123;50.906;4.198;2022-12-11T13:23:33;17.80;42.80
74617;DHT22;63123;50.906;4.198;2022-12-11T13:26:01;17.90;43.20
74617;DHT22;63123;50.906;4.198;2022-12-11T13:31:22;17.90;43.00
74617;DHT22;63123;50.906;4.198;2022-12-11T13:33:51;17.90;42.50
74617;DHT22;63123;50.906;4.198;2022-12-11T13:38:54;17.90;42.80
74617;DHT22;63123;50.906;4.198;2022-12-11T13:41:20;17.90;42.80
74617;DHT22;63123;50.906;4.198;2022-12-11T13:43:48;17.90;42.90
74617;DHT22;63123;50.906;4.198;2022-12-11T13:46:20;17.80;43.00
74617;DHT22;63123;50.906;4.198;2022-12-11T13:48:52;17.90;42.60
74617;DHT22;63123;50.906;4.198;2022-12-11T13:51:23;17.90;42.50
74617;DHT22;63123;50.906;4.198;2022-12-11T13:54:12;17.90;41.90
74617;DHT22;63123;50.906;4.198;2022-12-11T13:56:40;17.90;42.80
74617;DHT22;63123;50.906;4.198;2022-12-11T14:01:54;17.80;43.20
74617;DHT22;63123;50.906;4.198;2022-12-11T14:04:20;17.90;42.20
74617;DHT22;63123;50.906;4.198;2022-12-11T14:06:47;17.90;42.60
74617;DHT22;63123;50.906;4.198;2022-12-11T14:09:22;17.90;42.80
74617;DHT22;63123;50.906;4.198;2022-12-11T14:11:48;17.90;42.90
74617;DHT22;63123;50.906;4.198;2022-12-11T14:14:23;17.90;42.60
74617;DHT22;63123;50.906;4.198;2022-12-11T14:16:50;17.90;42.50
74617;DHT22;63123;50.906;4.198;2022-12-11T14:19:20;17.90;42.30
74617;DHT22;63123;50.906;4.198;2022-12-11T14:22:03;17.90;42.80
74617;DHT22;63123;50.906;4.198;2022-12-11T14:24:30;17.90;43.10
74617;DHT22;63123;50.906;4.198;2022-12-11T14:26:56;17.90;42.60
74617;DHT22;63123;50.906;4.198;2022-12-11T14:29:24;17.90;43.20
74617;DHT22;63123;50.906;4.198;2022-12-11T14:31:51;17.90;43.30
74617;DHT22;63123;50.906;4.198;2022-12-11T14:34:23;17.90;42.80
74617;DHT22;63123;50.906;4.198;2022-12-11T14:36:49;17.90;43.00
74617;DHT22;63123;50.906;4.198;2022-12-11T14:39:34;17.90;42.70
74617;DHT22;63123;50.906;4.198;2022-12-11T14:44:48;17.90;43.10
74617;DHT22;63123;50.906;4.198;2022-12-11T14:47:22;17.90;43.00
74617;DHT22;63123;50.906;4.198;2022-12-11T14:52:30;17.90;43.00
74617;DHT22;63123;50.906;4.198;2022-12-11T14:55:06;17.90;43.00
74617;DHT22;63123;50.906;4.198;2022-12-11T14:57:33;17.90;43.00
74617;DHT22;63123;50.906;4.198;2022-12-11T15:00:00;17.90;42.50
74617;DHT22;63123;50.906;4.198;2022-12-11T15:02:33;17.90;42.60
74617;DHT22;63123;50.906;4.198;2022-12-11T15:07:31;17.90;42.70
74617;DHT22;63123;50.906;4.198;2022-12-11T15:09:58;17.90;42.50
74617;DHT22;63123;50.906;4.198;2022-12-11T15:12:23;17.90;42.90
74617;DHT22;63123;50.906;4.198;2022-12-11T15:15:02;17.90;42.80
74617;DHT22;63123;50.906;4.198;2022-12-11T15:17:30;17.90;42.80
74617;DHT22;63123;50.906;4.198;2022-12-11T15:20:08;17.90;42.20
74617;DHT22;63123;50.906;4.198;2022-12-11T15:22:35;17.90;42.40
74617;DHT22;63123;50.906;4.198;2022-12-11T15:25:02;17.90;43.00
74617;DHT22;63123;50.906;4.198;2022-12-11T15:27:34;17.90;43.00
74617;DHT22;63123;50.906;4.198;2022-12-11T15:30:13;17.90;42.50
74617;DHT22;63123;50.906;4.198;2022-12-11T15:32:39;17.90;42.50
74617;DHT22;63123;50.906;4.198;2022-12-11T15:35:25;17.90;42.60
74617;DHT22;63123;50.906;4.198;2022-12-11T15:37:53;17.90;43.20
74617;DHT22;63123;50.906;4.198;2022-12-11T15:40:19;17.90;43.00
74617;DHT22;63123;50.906;4.198;2022-12-11T15:42:44;17.80;42.80
74617;DHT22;63123;50.906;4.198;2022-12-11T15:45:18;17.90;42.30
74617;DHT22;63123;50.906;4.198;2022-12-11T15:47:45;17.90;43.10
74617;DHT22;63123;50.906;4.198;2022-12-11T15:50:23;17.80;41.90
74617;DHT22;63123;50.906;4.198;2022-12-11T15:52:50;17.90;42.80
74617;DHT22;63123;50.906;4.198;2022-12-11T15:55:17;17.90;43.00
74617;DHT22;63123;50.906;4.198;2022-12-11T15:57:48;17.90;43.10
74617;DHT22;63123;50.906;4.198;2022-12-11T16:00:16;17.90;42.40
74617;DHT22;63123;50.906;4.198;2022-12-11T16:02:43;17.90;43.30
74617;DHT22;63123;50.906;4.198;2022-12-11T16:05:09;17.90;42.90
74617;DHT22;63123;50.906;4.198;2022-12-11T16:07:34;17.90;42.90
74617;DHT22;63123;50.906;4.198;2022-12-11T16:10:00;17.90;42.80
74617;DHT22;63123;50.906;4.198;2022-12-11T16:12:25;17.90;42.90
74617;DHT22;63123;50.906;4.198;2022-12-11T16:14:51;17.90;42.90
74617;DHT22;63123;50.906;4.198;2022-12-11T16:17:17;17.90;41.90
74617;DHT22;63123;50.906;4.198;2022-12-11T16:19:43;17.90;43.00
74617;DHT22;63123;50.906;4.198;2022-12-11T16:22:11;17.80;42.80
74617;DHT22;63123;50.906;4.198;2022-12-11T16:24:37;17.90;42.20
74617;DHT22;63123;50.906;4.198;2022-12-11T16:27:03;17.90;42.50
74617;DHT22;63123;50.906;4.198;2022-12-11T16:29:36;17.90;42.80
74617;DHT22;63123;50.906;4.198;2022-12-11T16:32:02;17.90;41.90
74617;DHT22;63123;50.906;4.198;2022-12-11T16:34:28;17.90;42.70
74617;DHT22;63123;50.906;4.198;2022-12-11T16:36:56;17.90;43.00
74617;DHT22;63123;50.906;4.198;2022-12-11T16:39:22;17.90;42.60
74617;DHT22;63123;50.906;4.198;2022-12-11T16:41:48;17.90;42.20
74617;DHT22;63123;50.906;4.198;2022-12-11T16:44:18;17.90;43.00
74617;DHT22;63123;50.906;4.198;2022-12-11T16:46:45;17.90;43.30
74617;DHT22;63123;50.906;4.198;2022-12-11T16:49:10;17.90;42.70
74617;DHT22;63123;50.906;4.198;2022-12-11T16:51:36;17.90;42.70
74617;DHT22;63123;50.906;4.198;2022-12-11T16:54:02;17.90;43.10
74617;DHT22;63123;50.906;4.198;2022-12-11T16:56:28;17.90;42.40
74617;DHT22;63123;50.906;4.198;2022-12-11T16:58:53;17.90;42.90
74617;DHT22;63123;50.906;4.198;2022-12-11T17:01:19;17.90;42.60
74617;DHT22;63123;50.906;4.198;2022-12-11T17:03:45;17.90;43.00
74617;DHT22;63123;50.906;4.198;2022-12-11T17:06:13;17.90;42.90
74617;DHT22;63123;50.906;4.198;2022-12-11T17:08:40;17.90;43.00
74617;DHT22;63123;50.906;4.198;2022-12-11T17:11:08;17.90;42.80
74617;DHT22;63123;50.906;4.198;2022-12-11T17:13:35;17.90;43.10